Time;durP1;ratioP1;P1;durP2;ratioP2;P2;SDS_P1;SDS_P2;PMS_P1;PMS_P2;Temp;Humidity;BMP_temperature;BMP_pressure;BME280_temperature;BME280_humidity;BME280_pressure;Samples;Min_cycle;Max_cycle;Signal;HPM_P1;HPM_P2
2021/08/25 00:02:15;;;;;;;0.70;0.70;;;;;;;13.99;100.00;100278.59;6248991;28;20040;-83
2021/08/25 00:05:16;;;;;;;0.80;0.60;;;;;;;13.97;100.00;100288.38;6282673;28;20044;-84
2021/08/25 00:08:17;;;;;;;0.82;0.80;;;;;;;13.98;100.00;100280.38;6265757;28;20098;-84
2021/08/25 00:11:18;;;;;;;2.53;0.80;;;;;;;13.91;100.00;100277.34;6249352;28;20048;-87
2021/08/25 00:14:18;;;;;;;1.13;0.75;;;;;;;13.83;100.00;100279.66;6282538;28;20120;-83
2021/08/25 00:17:19;;;;;;;0.93;0.65;;;;;;;13.86;100.00;100278.63;6265324;28;20058;-82
2021/08/25 00:20:20;;;;;;;0.80;0.60;;;;;;;13.84;100.00;100277.91;6249128;28;20780;-85
2021/08/25 00:23:21;;;;;;;3.60;0.95;;;;;;;13.91;100.00;100273.88;6249561;28;20036;-84
2021/08/25 00:26:22;;;;;;;2.25;1.00;;;;;;;13.82;100.00;100272.78;6297722;28;20071;-83
2021/08/25 00:29:22;;;;;;;1.38;1.27;;;;;;;13.79;100.00;100269.50;6268604;28;20070;-83
2021/08/25 00:32:23;;;;;;;2.15;1.00;;;;;;;13.80;100.00;100272.03;6272820;28;20484;-85
2021/08/25 00:35:24;;;;;;;4.53;1.10;;;;;;;13.73;100.00;100265.53;6307395;28;20048;-84
2021/08/25 00:38:25;;;;;;;1.38;1.00;;;;;;;13.67;100.00;100261.59;6273072;28;20517;-87
2021/08/25 00:41:25;;;;;;;1.30;0.90;;;;;;;13.77;100.00;100263.53;6305898;28;20050;-84
2021/08/25 00:44:27;;;;;;;1.75;1.00;;;;;;;13.81;100.00;100249.25;6256133;28;20115;-83
2021/08/25 00:47:32;;;;;;;1.75;1.05;;;;;;;13.71;100.00;100251.69;6273015;28;20089;-86
2021/08/25 00:50:35;;;;;;;4.00;1.30;;;;;;;13.70;100.00;100248.25;6323056;28;20040;-85
2021/08/25 00:53:36;;;;;;;3.30;1.38;;;;;;;13.67;100.00;100245.00;6289945;28;20036;-85
2021/08/25 00:56:36;;;;;;;2.75;1.10;;;;;;;13.67;100.00;100239.75;6272732;28;20050;-84
2021/08/25 00:59:37;;;;;;;2.00;1.40;;;;;;;13.66;100.00;100243.34;6289529;28;20048;-84
2021/08/25 01:02:51;;;;;;;2.63;1.40;;;;;;;13.66;100.00;100232.84;6306386;28;20042;-83
2021/08/25 01:05:54;;;;;;;2.58;1.30;;;;;;;13.73;100.00;100226.19;6305281;28;20106;-83
2021/08/25 01:09:00;;;;;;;2.63;1.60;;;;;;;13.68;100.00;100210.81;6306525;28;20063;-83
2021/08/25 01:12:01;;;;;;;2.35;1.45;;;;;;;13.64;100.00;100204.09;6306188;28;20089;-89
2021/08/25 01:15:01;;;;;;;2.10;1.40;;;;;;;13.66;100.00;100214.50;6273116;28;20047;-83
2021/08/25 01:18:14;;;;;;;2.85;1.63;;;;;;;13.61;100.00;100214.81;6289489;28;20097;-81
2021/08/25 01:21:15;;;;;;;;;;;;;;;13.53;100.00;100214.53;6291191;28;20434;-84
2021/08/25 01:24:18;;;;;;;2.95;1.38;;;;;;;13.53;100.00;100214.53;6288133;28;20133;-84
2021/08/25 01:27:22;;;;;;;3.95;1.40;;;;;;;13.56;100.00;100219.53;6288261;28;20032;-87
2021/08/25 01:30:26;;;;;;;2.85;1.45;;;;;;;13.50;100.00;100217.34;6290298;28;20064;-86
2021/08/25 01:33:30;;;;;;;2.65;1.60;;;;;;;13.50;100.00;100214.72;6321530;28;20044;-86
2021/08/25 01:36:31;;;;;;;3.85;1.80;;;;;;;13.48;100.00;100211.38;6283969;28;20049;-84
2021/08/25 01:39:31;;;;;;;3.28;1.75;;;;;;;13.50;100.00;100212.13;6246378;28;20071;-85
2021/08/25 01:42:32;;;;;;;3.88;1.58;;;;;;;13.49;100.00;100202.59;6229885;28;20052;-85
2021/08/25 01:45:33;;;;;;;4.78;1.77;;;;;;;13.50;100.00;100196.38;6279304;28;20043;-84
2021/08/25 01:48:34;;;;;;;3.77;1.87;;;;;;;13.48;100.00;100208.75;6264820;28;20040;-85
2021/08/25 01:51:36;;;;;;;3.90;1.92;;;;;;;13.45;100.00;100204.59;6287779;28;20058;-82
2021/08/25 01:54:37;;;;;;;3.20;1.92;;;;;;;13.50;100.00;100207.69;6285301;28;20060;-82
2021/08/25 01:57:38;;;;;;;2.70;2.00;;;;;;;13.49;100.00;100200.81;6245502;28;20043;-81
2021/08/25 02:00:38;;;;;;;4.00;2.17;;;;;;;13.51;100.00;100198.06;6262583;28;20407;-84
2021/08/25 02:03:39;;;;;;;5.00;2.22;;;;;;;13.48;100.00;100188.63;6262471;28;20095;-88
2021/08/25 02:06:40;;;;;;;3.40;2.35;;;;;;;13.46;100.00;100187.06;6279150;28;20032;-88
2021/08/25 02:09:41;;;;;;;5.28;2.08;;;;;;;13.47;100.00;100184.34;6262642;28;20121;-83
2021/08/25 02:12:42;;;;;;;3.92;2.20;;;;;;;13.46;100.00;100192.31;6245962;28;20072;-87
2021/08/25 02:15:43;;;;;;;6.55;2.22;;;;;;;13.42;100.00;100199.53;6296590;28;20100;-87
2021/08/25 02:18:44;;;;;;;3.40;2.22;;;;;;;13.36;100.00;100192.09;6229904;28;20135;-81
2021/08/25 02:21:45;;;;;;;3.97;2.30;;;;;;;13.41;100.00;100194.44;6278975;28;20063;-86
2021/08/25 02:24:46;;;;;;;3.80;2.60;;;;;;;13.32;100.00;100182.78;6246356;28;20040;-89
2021/08/25 02:27:47;;;;;;;4.43;2.38;;;;;;;13.42;100.00;100191.69;6262348;28;20476;-86
2021/08/25 02:30:47;;;;;;;3.83;2.55;;;;;;;13.39;100.00;100189.28;6245981;28;20051;-87
2021/08/25 02:33:49;;;;;;;5.97;2.75;;;;;;;13.36;100.00;100186.88;6264043;28;20036;-80
2021/08/25 02:36:50;;;;;;;3.70;2.40;;;;;;;13.39;100.00;100175.34;6286659;28;20076;-87
2021/08/25 02:39:51;;;;;;;4.18;2.33;;;;;;;13.38;100.00;100182.34;6261544;28;20055;-88
2021/08/25 02:42:52;;;;;;;6.80;3.10;;;;;;;13.30;100.00;100161.94;6287981;28;20036;-88
2021/08/25 02:45:52;;;;;;;3.78;2.58;;;;;;;13.32;100.00;100163.63;6287857;28;20114;-86
2021/08/25 02:48:53;;;;;;;4.93;2.50;;;;;;;13.34;100.00;100157.31;6287226;28;20113;-81
2021/08/25 02:51:54;;;;;;;5.70;2.92;;;;;;;13.25;100.00;100160.56;6271641;28;20474;-87
2021/08/25 02:54:55;;;;;;;5.45;2.55;;;;;;;13.25;100.00;100179.75;6270860;28;20043;-85
2021/08/25 02:57:57;;;;;;;5.78;2.80;;;;;;;13.29;100.00;100175.16;6278890;28;20117;-81
2021/08/25 03:00:58;;;;;;;6.13;3.03;;;;;;;13.21;100.00;100173.03;6295775;28;20045;-84
2021/08/25 03:03:59;;;;;;;4.10;2.50;;;;;;;13.26;100.00;100165.69;6278859;28;20483;-88
2021/08/25 03:07:00;;;;;;;4.72;2.70;;;;;;;13.31;100.00;100165.41;6279078;28;20040;-86
2021/08/25 03:10:01;;;;;;;4.40;2.42;;;;;;;13.30;100.00;100163.72;6278007;28;20045;-86
2021/08/25 03:13:02;;;;;;;6.82;2.72;;;;;;;13.29;100.00;100176.00;6295616;28;20471;-88
2021/08/25 03:16:03;;;;;;;5.82;2.97;;;;;;;13.27;100.00;100167.38;6262392;28;20133;-85
2021/08/25 03:19:04;;;;;;;4.00;2.55;;;;;;;13.25;100.00;100171.03;6282867;28;20527;-88
2021/08/25 03:22:04;;;;;;;5.03;2.83;;;;;;;13.22;100.00;100173.88;6270810;28;20035;-85
2021/08/25 03:25:07;;;;;;;5.68;3.00;;;;;;;13.23;100.00;100162.44;6286228;28;20059;-88
2021/08/25 03:28:08;;;;;;;4.75;2.75;;;;;;;13.30;100.00;100168.97;6303061;28;20040;-86
2021/08/25 03:31:08;;;;;;;7.47;3.05;;;;;;;13.30;100.00;100167.19;6287368;28;20047;-88
2021/08/25 03:34:09;;;;;;;4.68;2.83;;;;;;;13.27;100.00;100171.78;6304017;28;20168;-85
2021/08/25 03:37:10;;;;;;;5.82;2.65;;;;;;;13.29;100.00;100172.53;6270552;28;20130;-87
2021/08/25 03:40:11;;;;;;;4.07;2.47;;;;;;;13.31;100.00;100170.66;6303449;28;20032;-88
2021/08/25 03:43:13;;;;;;;5.37;2.57;;;;;;;13.32;100.00;100166.25;6303813;28;20474;-87
2021/08/25 03:46:13;;;;;;;5.10;2.70;;;;;;;13.37;100.00;100178.06;6303843;28;20082;-86
2021/08/25 03:49:14;;;;;;;5.43;2.70;;;;;;;13.37;100.00;100183.31;6270038;28;20051;-84
2021/08/25 03:52:15;;;;;;;5.22;2.70;;;;;;;13.27;100.00;100182.25;6269539;28;20494;-84
2021/08/25 03:55:16;;;;;;;4.75;2.60;;;;;;;13.20;100.00;100181.84;6269768;28;20491;-81
2021/08/25 03:58:17;;;;;;;4.85;2.60;;;;;;;13.24;100.00;100183.31;6321165;28;20123;-82
2021/08/25 04:01:18;;;;;;;4.38;2.50;;;;;;;13.30;100.00;100185.53;6269827;28;20038;-83
2021/08/25 04:04:19;;;;;;;4.45;2.50;;;;;;;13.32;100.00;100185.41;6270049;28;20063;-82
2021/08/25 04:07:19;;;;;;;4.47;2.50;;;;;;;13.35;99.89;100179.97;6269156;28;20494;-85
2021/08/25 04:10:20;;;;;;;3.88;2.40;;;;;;;13.29;100.00;100178.59;6286102;28;20044;-84
2021/08/25 04:13:21;;;;;;;6.00;2.72;;;;;;;13.32;100.00;100184.56;6296588;28;20040;-84
2021/08/25 04:16:22;;;;;;;8.07;2.90;;;;;;;13.27;100.00;100182.25;6278702;28;20047;-85
2021/08/25 04:19:23;;;;;;;8.32;2.80;;;;;;;13.28;100.00;100189.16;6286077;28;20032;-84
2021/08/25 04:22:24;;;;;;;4.60;2.65;;;;;;;13.30;99.73;100188.16;6273151;28;20058;-83
2021/08/25 04:25:25;;;;;;;4.85;2.88;;;;;;;13.24;99.91;100185.06;6307499;28;20032;-83
2021/08/25 04:28:26;;;;;;;6.47;2.70;;;;;;;13.29;100.00;100189.09;6290646;28;20056;-84
2021/08/25 04:31:26;;;;;;;5.53;2.55;;;;;;;13.28;100.00;100184.78;6290725;28;20079;-83
2021/08/25 04:34:27;;;;;;;6.60;2.75;;;;;;;13.35;99.60;100181.75;6273595;28;20055;-84
2021/08/25 04:37:28;;;;;;;5.05;2.90;;;;;;;13.36;99.05;100186.03;6290427;28;20071;-80
2021/08/25 04:40:29;;;;;;;4.40;2.97;;;;;;;13.38;99.00;100189.38;6290671;28;20048;-85
2021/08/25 04:43:30;;;;;;;6.15;3.17;;;;;;;13.47;98.94;100186.97;6290644;28;20502;-83
2021/08/25 04:46:30;;;;;;;4.85;2.55;;;;;;;13.55;98.10;100178.56;6273980;28;20543;-82
2021/08/25 04:49:31;;;;;;;6.60;3.13;;;;;;;13.58;97.56;100178.31;6325384;28;20044;-82
2021/08/25 04:52:32;;;;;;;4.68;3.10;;;;;;;13.61;96.83;100167.63;6273905;28;20047;-80
2021/08/25 04:55:36;;;;;;;8.50;3.00;;;;;;;13.69;97.82;100167.06;6306676;28;20067;-87
2021/08/25 04:58:37;;;;;;;5.07;3.00;;;;;;;13.65;95.69;100171.72;6289606;28;20093;-88
2021/08/25 05:01:38;;;;;;;5.45;3.17;;;;;;;13.66;95.68;100162.88;6287793;28;20044;-83
2021/08/25 05:04:38;;;;;;;9.10;3.08;;;;;;;13.64;97.36;100166.56;6289221;28;20487;-84
2021/08/25 05:07:39;;;;;;;6.50;2.78;;;;;;;13.68;95.76;100168.84;6289943;28;20104;-85
2021/08/25 05:10:46;;;;;;;5.90;3.22;;;;;;;13.75;94.47;100169.25;6307013;28;20047;-81
2021/08/25 05:13:46;;;;;;;5.15;3.28;;;;;;;13.80;95.45;100164.50;6306641;28;20059;-83
2021/08/25 05:16:47;;;;;;;7.50;3.38;;;;;;;13.83;94.53;100161.66;6273539;28;20479;-82
2021/08/25 05:19:48;;;;;;;4.93;3.17;;;;;;;13.82;92.19;100146.88;6306749;28;20047;-84
2021/08/25 05:22:50;;;;;;;6.18;2.83;;;;;;;13.89;93.74;100158.59;6273183;28;20036;-84
2021/08/25 05:25:51;;;;;;;5.47;2.92;;;;;;;14.01;93.43;100159.47;6290251;28;20035;-88
2021/08/25 05:28:51;;;;;;;6.25;3.10;;;;;;;14.03;90.44;100156.75;6272995;28;20050;-87
2021/08/25 05:31:52;;;;;;;9.60;3.00;;;;;;;14.13;91.36;100162.16;6274469;28;20085;-87
2021/08/25 05:34:53;;;;;;;11.50;3.30;;;;;;;14.02;90.79;100166.41;6272976;28;20040;-84
2021/08/25 05:37:57;;;;;;;5.38;3.20;;;;;;;14.01;89.28;100167.34;6264580;28;20052;-83
2021/08/25 05:40:57;;;;;;;8.07;3.22;;;;;;;14.05;90.75;100179.28;6264522;28;20194;-88
2021/08/25 05:44:03;;;;;;;9.38;3.40;;;;;;;14.11;88.75;100172.75;6264682;28;20041;-87
2021/08/25 05:47:04;;;;;;;7.63;3.20;;;;;;;14.18;92.51;100176.59;6280915;28;20487;-90
2021/08/25 05:50:06;;;;;;;8.57;3.45;;;;;;;14.17;89.29;100180.19;6248129;28;20047;-90
2021/08/25 05:53:08;;;;;;;;;;;;;;;14.22;89.58;100175.41;6281665;28;20033;-86
2021/08/25 05:56:09;;;;;;;5.88;3.40;;;;;;;14.24;88.48;100165.63;6280953;28;19921;-83
2021/08/25 05:59:10;;;;;;;7.43;3.28;;;;;;;14.32;87.66;100168.53;6280487;28;20064;-85
2021/08/25 06:02:11;;;;;;;7.07;3.60;;;;;;;14.40;89.36;100170.59;6280618;28;20044;-82
2021/08/25 06:05:13;;;;;;;5.57;3.08;;;;;;;14.52;87.41;100169.66;6263943;28;20478;-82
2021/08/25 06:08:14;;;;;;;4.55;2.75;;;;;;;14.50;85.09;100173.38;6297456;28;20131;-83
2021/08/25 06:11:15;;;;;;;5.63;3.38;;;;;;;14.50;85.06;100181.25;6304607;28;20655;-84
2021/08/25 06:14:15;;;;;;;8.85;3.05;;;;;;;14.58;87.69;100176.28;6264149;28;20055;-81
2021/08/25 06:17:16;;;;;;;8.55;3.38;;;;;;;14.73;85.81;100176.06;6288219;28;20035;-85
2021/08/25 06:20:17;;;;;;;4.97;2.95;;;;;;;14.79;84.37;100175.59;6263252;28;20049;-86
2021/08/25 06:23:19;;;;;;;6.10;3.03;;;;;;;14.75;83.76;100174.16;6262317;28;20102;-81
2021/08/25 06:26:19;;;;;;;7.30;3.20;;;;;;;14.79;83.95;100170.34;6302053;28;20209;-82
2021/08/25 06:29:20;;;;;;;6.38;3.05;;;;;;;14.82;82.10;100178.78;6313472;28;20048;-85
2021/08/25 06:32:21;;;;;;;8.65;3.20;;;;;;;14.95;82.42;100173.47;6285098;28;20046;-81
2021/08/25 06:35:22;;;;;;;12.88;3.40;;;;;;;15.07;81.64;100177.75;6246607;28;20040;-82
2021/08/25 06:38:23;;;;;;;5.88;2.75;;;;;;;14.91;79.07;100159.72;6263070;28;20522;-82
2021/08/25 06:41:24;;;;;;;5.45;3.17;;;;;;;15.04;79.53;100167.47;6297653;28;20040;-88
2021/08/25 06:44:24;;;;;;;7.30;2.92;;;;;;;15.09;77.88;100167.09;6287962;28;20036;-82
2021/08/25 06:47:25;;;;;;;7.65;3.05;;;;;;;15.17;80.14;100169.16;6262881;28;20036;-87
2021/08/25 06:50:26;;;;;;;6.60;2.72;;;;;;;15.27;78.35;100159.59;6295956;28;20047;-86
2021/08/25 06:53:29;;;;;;;8.27;3.13;;;;;;;15.37;78.42;100152.63;6230821;28;20176;-87
2021/08/25 06:56:30;;;;;;;5.50;2.63;;;;;;;15.55;76.15;100160.88;6298181;28;20062;-87
2021/08/25 06:59:31;;;;;;;6.00;2.60;;;;;;;15.50;75.94;100163.88;6262912;28;20142;-87
2021/08/25 07:02:32;;;;;;;7.85;2.65;;;;;;;15.50;80.37;100161.25;6246321;28;20068;-83
2021/08/25 07:05:33;;;;;;;7.65;3.10;;;;;;;15.60;76.42;100177.09;6246400;28;20453;-90
2021/08/25 07:08:33;;;;;;;6.32;2.75;;;;;;;15.65;77.82;100174.13;6262677;28;20090;-86
2021/08/25 07:11:35;;;;;;;3.92;2.50;;;;;;;15.79;78.25;100168.56;6261952;28;20075;-82
2021/08/25 07:14:35;;;;;;;5.80;3.03;;;;;;;16.11;76.82;100163.31;6261322;28;20090;-84
2021/08/25 07:17:36;;;;;;;4.68;2.50;;;;;;;16.05;74.78;100163.81;6244751;28;20119;-87
2021/08/25 07:20:37;;;;;;;4.45;2.58;;;;;;;16.07;73.58;100175.06;6262297;28;20041;-86
2021/08/25 07:23:38;;;;;;;6.13;2.50;;;;;;;16.15;74.79;100163.09;6262538;28;20076;-88
2021/08/25 07:26:39;;;;;;;5.82;2.60;;;;;;;16.28;73.26;100166.34;6262807;28;20044;-86
2021/08/25 07:29:39;;;;;;;6.03;2.60;;;;;;;16.32;75.01;100176.50;6278592;28;20407;-87
2021/08/25 07:32:41;;;;;;;4.20;2.60;;;;;;;16.44;74.60;100171.19;6278766;28;20037;-87
2021/08/25 07:35:46;;;;;;;4.60;2.58;;;;;;;16.69;71.14;100162.03;6278805;28;20037;-84
2021/08/25 07:38:47;;;;;;;7.43;2.75;;;;;;;16.93;74.46;100172.34;6238005;28;20087;-88
2021/08/25 07:41:48;;;;;;;6.55;2.60;;;;;;;16.87;69.24;100175.50;6275255;28;20226;-87
2021/08/25 07:44:48;;;;;;;3.88;2.13;;;;;;;16.83;68.97;100160.91;6295330;28;20123;-88
2021/08/25 07:47:49;;;;;;;4.13;2.50;;;;;;;17.07;68.99;100171.13;6262227;28;20060;-86
2021/08/25 07:50:52;;;;;;;4.75;2.55;;;;;;;17.09;67.32;100169.19;6295405;28;20048;-88
2021/08/25 07:53:53;;;;;;;3.30;2.40;;;;;;;17.00;68.80;100155.00;6262655;28;20044;-88
2021/08/25 07:56:54;;;;;;;10.10;3.17;;;;;;;17.21;69.37;100144.41;6281133;28;20399;-88
2021/08/25 07:59:54;;;;;;;8.02;2.58;;;;;;;17.39;68.14;100146.41;6283233;28;20380;-87
2021/08/25 08:02:55;;;;;;;5.32;2.33;;;;;;;17.47;66.98;100136.84;6300025;28;20040;-85
2021/08/25 08:05:56;;;;;;;3.90;2.40;;;;;;;17.59;67.69;100142.00;6259111;28;20103;-85
2021/08/25 08:08:57;;;;;;;6.20;2.78;;;;;;;17.44;69.18;100139.75;6300614;28;20036;-85
2021/08/25 08:11:57;;;;;;;14.02;3.10;;;;;;;17.35;69.11;100145.00;6266508;28;20092;-87
2021/08/25 08:14:58;;;;;;;8.23;2.67;;;;;;;17.39;67.31;100138.50;6315519;28;20102;-84
2021/08/25 08:18:08;;;;;;;5.75;3.00;;;;;;;17.64;65.34;100145.88;6273772;28;20048;-88
2021/08/25 08:21:09;;;;;;;7.38;2.67;;;;;;;17.76;67.73;100137.84;6274804;28;20048;-87
2021/08/25 08:24:10;;;;;;;4.97;2.47;;;;;;;17.72;67.98;100134.66;6274692;28;20041;-88
2021/08/25 08:27:10;;;;;;;7.15;2.80;;;;;;;17.96;64.26;100139.56;6291193;28;20052;-86
2021/08/25 08:30:11;;;;;;;3.67;2.30;;;;;;;17.98;64.98;100134.97;6258082;28;20055;-84
2021/08/25 08:33:12;;;;;;;9.23;2.90;;;;;;;17.97;64.36;100129.81;6274382;28;20044;-88
2021/08/25 08:36:13;;;;;;;6.88;2.80;;;;;;;18.08;64.51;100127.88;6258427;28;20041;-86
2021/08/25 08:39:14;;;;;;;4.03;2.20;;;;;;;18.09;62.89;100136.63;6282354;28;20048;-89
2021/08/25 08:42:44;;;;;;;9.75;2.78;;;;;;;18.29;64.65;100126.88;6282309;28;20454;-87
2021/08/25 08:45:45;;;;;;;2.95;2.20;;;;;;;18.46;64.26;100122.69;6273787;28;20471;-81
2021/08/25 08:48:47;;;;;;;5.35;2.30;;;;;;;18.56;63.77;100130.59;6265676;28;20044;-82
2021/08/25 08:51:50;;;;;;;4.00;2.53;;;;;;;18.49;62.25;100117.94;6282146;28;20055;-89
2021/08/25 08:54:53;;;;;;;4.80;2.50;;;;;;;18.47;61.88;100119.91;6300046;28;20040;-85
2021/08/25 08:57:54;;;;;;;5.50;2.33;;;;;;;18.44;60.73;100119.34;6265574;28;20402;-85
2021/08/25 09:00:55;;;;;;;5.00;2.43;;;;;;;18.43;62.39;100120.31;6281664;28;20046;-84
2021/08/25 09:03:56;;;;;;;4.70;2.35;;;;;;;18.59;61.88;100125.00;6265101;28;20040;-86
2021/08/25 09:06:56;;;;;;;5.32;2.28;;;;;;;18.63;62.21;100121.09;6281222;28;20516;-84
2021/08/25 09:10:00;;;;;;;4.78;2.45;;;;;;;18.49;60.57;100122.38;6297117;28;20518;-85
2021/08/25 09:13:03;;;;;;;3.97;2.22;;;;;;;18.60;60.51;100129.31;6281197;28;20047;-83
2021/08/25 09:16:05;;;;;;;6.82;2.80;;;;;;;18.64;62.75;100120.13;6313842;28;20043;-85
2021/08/25 09:19:13;;;;;;;4.40;2.28;;;;;;;18.73;61.93;100119.25;6314299;28;20037;-85
2021/08/25 09:22:19;;;;;;;3.75;1.73;;;;;;;18.81;62.72;100114.09;6323619;28;20039;-83
2021/08/25 09:25:33;;;;;;;5.30;2.40;;;;;;;18.98;59.49;100109.84;6306095;28;20087;-82
2021/08/25 09:28:37;;;;;;;4.78;2.38;;;;;;;19.33;60.33;100118.84;6289584;28;20040;-83
2021/08/25 09:31:42;;;;;;;7.10;2.38;;;;;;;19.48;58.73;100117.38;6324122;28;20044;-86
2021/08/25 09:34:43;;;;;;;3.38;2.25;;;;;;;19.35;57.23;100110.78;6289328;28;20083;-80
2021/08/25 09:37:53;;;;;;;4.30;2.07;;;;;;;19.42;58.46;100110.03;6280823;28;20076;-80
2021/08/25 09:41:00;;;;;;;6.28;2.63;;;;;;;19.55;58.41;100108.84;6281045;28;20051;-80
2021/08/25 09:44:15;;;;;;;5.28;2.22;;;;;;;19.51;58.83;100108.31;6297480;28;20040;-81
2021/08/25 09:47:15;;;;;;;4.57;2.40;;;;;;;19.77;58.22;100099.63;6297421;28;20052;-81
2021/08/25 09:50:20;;;;;;;5.00;2.40;;;;;;;19.71;56.69;100098.44;6297380;28;20044;-82
2021/08/25 09:53:20;;;;;;;6.90;2.70;;;;;;;19.44;59.11;100099.31;6297174;28;20040;-80
2021/08/25 09:56:25;;;;;;;6.90;2.73;;;;;;;19.59;62.00;100100.44;6272320;28;20037;-82
2021/08/25 09:59:26;;;;;;;7.07;2.90;;;;;;;19.41;58.30;100105.72;6283249;28;20071;-83
2021/08/25 10:02:27;;;;;;;4.63;2.70;;;;;;;19.48;60.82;100098.03;6280296;28;20041;-83
2021/08/25 10:05:29;;;;;;;5.53;2.40;;;;;;;19.80;57.71;100100.16;6280428;28;20064;-83
2021/08/25 10:08:30;;;;;;;3.95;2.13;;;;;;;19.91;57.01;100097.28;6280159;28;20491;-80
2021/08/25 10:11:34;;;;;;;5.70;2.37;;;;;;;19.94;56.20;100088.22;6280344;28;20101;-82
2021/08/25 10:14:36;;;;;;;7.03;2.58;;;;;;;19.78;57.23;100098.66;6313201;28;20079;-84
2021/08/25 10:17:40;;;;;;;6.03;2.53;;;;;;;19.85;57.07;100089.09;6275265;28;20475;-82
2021/08/25 10:20:40;;;;;;;6.70;2.33;;;;;;;19.92;58.44;100095.47;6275428;28;20368;-85
2021/08/25 10:23:57;;;;;;;5.07;2.53;;;;;;;20.00;57.12;100097.38;6279756;28;20049;-85
2021/08/25 10:26:57;;;;;;;4.95;3.00;;;;;;;20.20;57.01;100090.03;6297691;28;20040;-87
2021/08/25 10:30:01;;;;;;;3.83;2.50;;;;;;;20.28;57.96;100080.34;6296284;28;20056;-89
2021/08/25 10:33:02;;;;;;;4.82;2.53;;;;;;;20.27;57.79;100069.91;6296129;28;20047;-86
2021/08/25 10:36:19;;;;;;;6.37;2.50;;;;;;;20.09;56.66;100069.94;6296196;28;20040;-87
2021/08/25 10:39:29;;;;;;;5.78;2.20;;;;;;;20.15;55.75;100064.03;6312706;28;20044;-87
2021/08/25 10:42:54;;;;;;;5.88;2.50;;;;;;;20.21;58.80;100055.47;6296315;28;20055;-88
2021/08/25 10:45:58;;;;;;;5.57;2.88;;;;;;;20.17;57.24;100053.28;6279516;28;20080;-88
2021/08/25 10:49:00;;;;;;;4.75;2.83;;;;;;;20.35;57.16;100051.41;6263340;28;20056;-86
2021/08/25 10:52:24;;;;;;;3.75;2.60;;;;;;;20.41;57.20;100037.53;6295920;28;20093;-85
2021/08/25 10:55:25;;;;;;;5.32;2.40;;;;;;;20.30;56.86;100043.09;6289385;28;20056;-89
2021/08/25 10:59:02;;;;;;;3.23;2.07;;;;;;;20.22;58.41;100025.34;6295590;28;20043;-89
2021/08/25 11:02:04;;;;;;;5.68;2.35;;;;;;;20.32;57.00;100030.50;6273345;28;20182;-88
2021/08/25 11:05:05;;;;;;;5.72;2.70;;;;;;;20.35;56.85;100021.44;6295651;28;20052;-85
2021/08/25 11:08:20;;;;;;;4.25;2.38;;;;;;;20.28;57.93;100023.88;6279437;28;20047;-87
2021/08/25 11:11:21;;;;;;;4.07;2.65;;;;;;;20.19;59.08;100015.03;6295531;28;20127;-86
2021/08/25 11:14:54;;;;;;;5.30;2.80;;;;;;;19.85;59.98;100017.63;6294801;28;20044;-84
2021/08/25 11:17:54;;;;;;;7.13;3.10;;;;;;;19.67;61.00;100021.13;6292489;28;20056;-86
2021/08/25 11:21:05;;;;;;;5.87;3.07;;;;;;;19.78;61.54;100027.19;6276264;28;20040;-86
2021/08/25 11:24:06;;;;;;;5.30;3.10;;;;;;;19.79;59.94;100028.84;6273879;28;20433;-82
2021/08/25 11:27:28;;;;;;;5.50;2.70;;;;;;;19.92;59.82;100022.16;6293368;28;20086;-85
2021/08/25 11:30:29;;;;;;;7.22;2.80;;;;;;;19.90;60.84;100018.00;6295152;28;20048;-87
2021/08/25 11:33:30;;;;;;;5.15;2.78;;;;;;;20.12;58.98;100009.56;6300292;28;20481;-87
2021/08/25 11:36:31;;;;;;;4.67;2.57;;;;;;;20.25;58.73;100010.94;6270713;28;20058;-84
2021/08/25 11:39:32;;;;;;;5.27;2.90;;;;;;;19.78;59.48;100013.94;6289203;28;20040;-87
2021/08/25 11:42:34;;;;;;;4.67;2.43;;;;;;;19.84;58.55;100010.69;6308364;28;20048;-87
2021/08/25 11:45:41;;;;;;;6.57;2.50;;;;;;;19.81;59.61;100010.97;6308685;28;20394;-84
2021/08/25 11:48:41;;;;;;;4.80;2.60;;;;;;;19.98;57.99;100004.81;6308486;28;20064;-83
2021/08/25 11:51:42;;;;;;;7.70;3.20;;;;;;;20.07;56.93;100008.34;6291652;28;20046;-85
2021/08/25 11:54:43;;;;;;;4.67;2.63;;;;;;;19.82;58.92;100010.84;6291926;28;20497;-86
2021/08/25 11:57:52;;;;;;;6.47;2.95;;;;;;;19.66;58.21;100010.69;6326537;28;20115;-87
2021/08/25 12:00:55;;;;;;;4.88;2.40;;;;;;;19.96;58.25;100013.91;6308201;28;20058;-85
2021/08/25 12:03:55;;;;;;;5.45;2.10;;;;;;;19.96;60.32;100011.28;6308205;28;20040;-84
2021/08/25 12:06:56;;;;;;;4.00;2.43;;;;;;;19.87;57.33;100016.50;6274891;28;20044;-83
2021/08/25 12:09:59;;;;;;;4.30;2.53;;;;;;;20.20;56.98;100010.56;6308146;28;20042;-83
2021/08/25 12:13:01;;;;;;;5.65;2.70;;;;;;;20.36;57.27;100007.19;6275076;28;20513;-83
2021/08/25 12:16:10;;;;;;;5.72;2.67;;;;;;;20.34;58.43;100015.28;6307746;28;20051;-82
2021/08/25 12:19:20;;;;;;;5.90;2.90;;;;;;;20.43;57.78;100009.06;6307496;28;20393;-85
2021/08/25 12:22:25;;;;;;;4.88;2.97;;;;;;;20.42;54.50;100017.16;6291141;28;20036;-84
2021/08/25 12:25:46;;;;;;;5.13;2.60;;;;;;;20.28;54.72;100013.25;6312614;28;20036;-87
2021/08/25 12:28:47;;;;;;;5.47;2.75;;;;;;;20.33;54.06;100018.94;6307745;28;20051;-84
2021/08/25 12:31:56;;;;;;;6.00;2.73;;;;;;;20.33;52.78;100003.03;6290872;28;20063;-85
2021/08/25 12:35:00;;;;;;;5.40;2.60;;;;;;;20.42;54.50;100010.03;6307584;28;20040;-84
2021/08/25 12:38:02;;;;;;;8.90;2.70;;;;;;;20.38;53.37;100016.63;6325225;28;20064;-82
2021/08/25 12:41:03;;;;;;;5.07;2.42;;;;;;;20.56;54.37;100011.25;6324933;28;20135;-84
2021/08/25 12:44:05;;;;;;;4.53;2.47;;;;;;;20.56;52.34;100015.72;6290598;28;20036;-83
2021/08/25 12:47:10;;;;;;;7.53;2.75;;;;;;;20.40;56.05;100004.06;6307840;28;20040;-82
2021/08/25 12:50:12;;;;;;;5.20;2.70;;;;;;;20.33;56.49;100008.34;6290553;28;20486;-82
2021/08/25 12:53:13;;;;;;;12.02;2.67;;;;;;;20.26;55.11;100009.94;6273959;28;20393;-85
2021/08/25 12:56:15;;;;;;;3.53;2.40;;;;;;;19.94;54.39;100003.47;6273956;28;20036;-85
2021/08/25 12:59:15;;;;;;;4.85;2.65;;;;;;;20.04;57.42;99996.25;6306892;28;20048;-84
2021/08/25 13:02:16;;;;;;;4.97;2.43;;;;;;;20.27;56.37;100001.84;6306687;28;20040;-86
2021/08/25 13:05:17;;;;;;;5.20;2.80;;;;;;;20.32;54.96;100004.00;6290163;28;20086;-83
2021/08/25 13:08:19;;;;;;;6.68;2.80;;;;;;;20.54;55.14;100005.28;6290051;28;20475;-83
2021/08/25 13:11:20;;;;;;;5.07;2.75;;;;;;;20.65;53.36;99994.44;6290090;28;20048;-81
2021/08/25 13:14:20;;;;;;;4.47;2.50;;;;;;;20.56;53.89;99998.00;6290046;28;20479;-84
2021/08/25 13:17:21;;;;;;;4.33;2.63;;;;;;;20.54;52.93;99990.22;6289480;28;20089;-83
2021/08/25 13:20:22;;;;;;;6.83;3.00;;;;;;;20.38;55.83;99986.66;6288872;28;20044;-82
2021/08/25 13:23:23;;;;;;;5.60;3.07;;;;;;;20.42;54.91;99990.66;6268558;28;20036;-82
2021/08/25 13:26:24;;;;;;;8.50;2.83;;;;;;;20.43;55.54;99989.69;6289466;28;20044;-85
2021/08/25 13:29:25;;;;;;;5.40;2.70;;;;;;;20.37;56.20;99977.06;6289853;28;20055;-83
2021/08/25 13:32:25;;;;;;;5.07;2.63;;;;;;;20.41;55.81;99971.28;6273409;28;20063;-84
2021/08/25 13:35:26;;;;;;;5.23;3.33;;;;;;;20.07;54.51;99972.09;6273215;28;20390;-85
2021/08/25 13:38:27;;;;;;;5.47;2.67;;;;;;;19.92;56.05;99971.84;6272990;28;20056;-83
2021/08/25 13:41:28;;;;;;;6.27;2.73;;;;;;;19.84;54.82;99965.69;6272796;28;20110;-82
2021/08/25 13:44:28;;;;;;;9.00;2.77;;;;;;;19.96;55.89;99968.91;6273048;28;20060;-85
2021/08/25 13:47:29;;;;;;;6.30;2.77;;;;;;;19.90;55.37;99959.75;6292568;28;20379;-84
2021/08/25 13:50:33;;;;;;;4.73;2.57;;;;;;;19.92;54.90;99960.44;6273007;28;20532;-83
2021/08/25 13:53:34;;;;;;;3.92;2.45;;;;;;;20.10;57.83;99955.91;6304875;28;20036;-84
2021/08/25 13:56:34;;;;;;;4.27;2.20;;;;;;;20.16;57.45;99959.75;6288902;28;20097;-84
2021/08/25 13:59:35;;;;;;;8.90;2.87;;;;;;;20.13;54.96;99960.88;6289029;28;20063;-85
2021/08/25 14:02:36;;;;;;;4.67;2.57;;;;;;;20.05;54.31;99952.88;6288785;28;20482;-85
2021/08/25 14:05:37;;;;;;;4.70;2.70;;;;;;;19.93;53.91;99947.03;6288929;28;20039;-84
2021/08/25 14:08:38;;;;;;;5.60;2.57;;;;;;;19.78;54.66;99947.75;6272473;28;20461;-84